Etusivu
METAR-TAF:

METAR-TAF

Lentoasemat :

Fayetteville, Tennessee, Yhdysvallat

Leveyspiiri: 35-03-35N, Pituuspiiri: 086-33-50W, korkeus merenpinnasta: 300 m

Tämänhetkinen sää

Tämä raportti tehtiin 30 minuuttia sitten, kello 07.55 UTC
Tuuli 4 kn pohjoisesta/koillisesta
Lämpötila 4°C
Kosteus 100%
Ilmanpaine 1015 hPa
Näkyvyys: 0.4 km
Pilvistä 200 ft:n korkeudessa
sumua

METAR: KFYM 220755Z AUTO 02004KT 1/4SM FG OVC002 04/04 A2998 RMK A01

Aika: 02:25 (08:25 UTC)


TAF: puuttuu

Säähavainnot ja -ennusteet yli 4000 lentoasemalta (METAR- ja TAF-raportit).

Käytössä olevat sääasemat on merkitty karttaan keltaisilla ja punaisilla pisteillä.

Aseta hiiri pisteen päälle nähdäksesi sääaseman nimen.

Klikkaa sitten nähdäksesi säähavainnot ja -ennusteet.

Kartan vaihtaminen: klikkaa mustalla rastilla varustettuja vihreitä pisteitä, niin voit zoomata sisään; viivalla varustettua vihreää pistettä, niin voit zoomata ulos tai vihreitä nuolia, niin pääset viereisille kartoille.


METAR-TAF: